sensor_id;sensor_type;location;lat;lon;timestamp;temperature;humidity
52859;DHT22;38721;53.098;6.596;2022-10-16T00:01:24;12.20;99.90
52859;DHT22;38721;53.098;6.596;2022-10-16T00:03:50;12.20;99.90
52859;DHT22;38721;53.098;6.596;2022-10-16T00:06:18;12.10;99.90
52859;DHT22;38721;53.098;6.596;2022-10-16T00:08:44;12.20;99.90
52859;DHT22;38721;53.098;6.596;2022-10-16T00:11:17;12.20;99.90
52859;DHT22;38721;53.098;6.596;2022-10-16T00:13:44;12.10;99.90
52859;DHT22;38721;53.098;6.596;2022-10-16T00:16:11;12.20;99.90
52859;DHT22;38721;53.098;6.596;2022-10-16T00:18:37;12.00;99.90
52859;DHT22;38721;53.098;6.596;2022-10-16T00:21:06;12.10;99.90
52859;DHT22;38721;53.098;6.596;2022-10-16T00:23:33;12.20;99.90
52859;DHT22;38721;53.098;6.596;2022-10-16T00:26:02;12.00;99.90
52859;DHT22;38721;53.098;6.596;2022-10-16T00:28:28;12.10;99.90
52859;DHT22;38721;53.098;6.596;2022-10-16T00:30:54;12.10;99.90
52859;DHT22;38721;53.098;6.596;2022-10-16T00:33:20;12.20;99.90
52859;DHT22;38721;53.098;6.596;2022-10-16T00:35:46;12.00;99.90
52859;DHT22;38721;53.098;6.596;2022-10-16T00:38:12;12.10;99.90
52859;DHT22;38721;53.098;6.596;2022-10-16T00:40:38;12.20;99.90
52859;DHT22;38721;53.098;6.596;2022-10-16T00:43:51;12.30;99.90
52859;DHT22;38721;53.098;6.596;2022-10-16T00:45:59;12.20;99.90
52859;DHT22;38721;53.098;6.596;2022-10-16T00:48:25;12.30;99.90
52859;DHT22;38721;53.098;6.596;2022-10-16T00:50:50;12.30;99.90
52859;DHT22;38721;53.098;6.596;2022-10-16T00:53:17;12.30;99.90
52859;DHT22;38721;53.098;6.596;2022-10-16T00:55:43;12.30;99.90
52859;DHT22;38721;53.098;6.596;2022-10-16T00:58:09;12.30;99.90
52859;DHT22;38721;53.098;6.596;2022-10-16T01:00:35;12.30;99.90
52859;DHT22;38721;53.098;6.596;2022-10-16T01:03:02;12.40;99.90
52859;DHT22;38721;53.098;6.596;2022-10-16T01:05:41;12.40;99.90
52859;DHT22;38721;53.098;6.596;2022-10-16T01:08:13;12.30;99.90
52859;DHT22;38721;53.098;6.596;2022-10-16T01:10:52;12.30;99.90
52859;DHT22;38721;53.098;6.596;2022-10-16T01:13:25;12.40;99.90
52859;DHT22;38721;53.098;6.596;2022-10-16T01:19:14;12.20;99.90
52859;DHT22;38721;53.098;6.596;2022-10-16T01:21:44;12.20;99.90
52859;DHT22;38721;53.098;6.596;2022-10-16T01:27:12;12.40;99.90
52859;DHT22;38721;53.098;6.596;2022-10-16T01:30:02;12.40;99.90
52859;DHT22;38721;53.098;6.596;2022-10-16T01:32:44;12.50;99.90
52859;DHT22;38721;53.098;6.596;2022-10-16T01:35:35;12.40;99.90
52859;DHT22;38721;53.098;6.596;2022-10-16T01:40:27;12.60;99.90
52859;DHT22;38721;53.098;6.596;2022-10-16T01:45:31;12.50;99.90
52859;DHT22;38721;53.098;6.596;2022-10-16T01:47:59;12.40;99.90
52859;DHT22;38721;53.098;6.596;2022-10-16T01:50:26;12.50;99.90
52859;DHT22;38721;53.098;6.596;2022-10-16T01:52:54;12.40;99.90
52859;DHT22;38721;53.098;6.596;2022-10-16T01:55:26;12.30;99.90
52859;DHT22;38721;53.098;6.596;2022-10-16T01:57:57;12.40;99.90
52859;DHT22;38721;53.098;6.596;2022-10-16T02:00:26;12.50;99.90
52859;DHT22;38721;53.098;6.596;2022-10-16T02:02:53;12.30;99.90
52859;DHT22;38721;53.098;6.596;2022-10-16T02:08:04;12.40;99.90
52859;DHT22;38721;53.098;6.596;2022-10-16T02:10:30;12.40;99.90
52859;DHT22;38721;53.098;6.596;2022-10-16T02:13:00;12.50;99.90
52859;DHT22;38721;53.098;6.596;2022-10-16T02:15:27;12.30;99.90
52859;DHT22;38721;53.098;6.596;2022-10-16T02:17:52;12.40;99.90
52859;DHT22;38721;53.098;6.596;2022-10-16T02:20:23;12.30;99.90
52859;DHT22;38721;53.098;6.596;2022-10-16T02:22:51;12.40;99.90
52859;DHT22;38721;53.098;6.596;2022-10-16T02:25:24;12.30;99.90
52859;DHT22;38721;53.098;6.596;2022-10-16T02:28:17;12.40;99.90
52859;DHT22;38721;53.098;6.596;2022-10-16T02:30:56;12.50;99.90
52859;DHT22;38721;53.098;6.596;2022-10-16T02:33:25;12.50;99.90
52859;DHT22;38721;53.098;6.596;2022-10-16T02:35:54;12.40;99.90
52859;DHT22;38721;53.098;6.596;2022-10-16T02:38:21;12.60;99.90
52859;DHT22;38721;53.098;6.596;2022-10-16T02:40:48;12.60;99.90
52859;DHT22;38721;53.098;6.596;2022-10-16T02:43:14;12.50;99.90
52859;DHT22;38721;53.098;6.596;2022-10-16T02:45:43;12.50;99.90
52859;DHT22;38721;53.098;6.596;2022-10-16T02:48:09;12.50;99.90
52859;DHT22;38721;53.098;6.596;2022-10-16T02:50:34;12.50;99.90
52859;DHT22;38721;53.098;6.596;2022-10-16T02:53:00;12.60;99.90
52859;DHT22;38721;53.098;6.596;2022-10-16T02:55:26;12.70;99.90
52859;DHT22;38721;53.098;6.596;2022-10-16T02:57:53;12.70;99.90
52859;DHT22;38721;53.098;6.596;2022-10-16T03:00:20;12.60;99.90
52859;DHT22;38721;53.098;6.596;2022-10-16T03:02:46;12.70;99.90
52859;DHT22;38721;53.098;6.596;2022-10-16T03:05:13;12.60;99.90
52859;DHT22;38721;53.098;6.596;2022-10-16T03:07:39;12.70;99.90
52859;DHT22;38721;53.098;6.596;2022-10-16T03:10:08;12.60;99.90
52859;DHT22;38721;53.098;6.596;2022-10-16T03:12:34;12.60;99.90
52859;DHT22;38721;53.098;6.596;2022-10-16T03:14:59;12.60;99.90
52859;DHT22;38721;53.098;6.596;2022-10-16T03:17:25;12.80;99.90
52859;DHT22;38721;53.098;6.596;2022-10-16T03:19:51;12.80;99.90
52859;DHT22;38721;53.098;6.596;2022-10-16T03:22:17;12.70;99.90
52859;DHT22;38721;53.098;6.596;2022-10-16T03:24:43;12.70;99.90
52859;DHT22;38721;53.098;6.596;2022-10-16T03:27:08;12.70;99.90
52859;DHT22;38721;53.098;6.596;2022-10-16T03:29:34;12.70;99.90
52859;DHT22;38721;53.098;6.596;2022-10-16T03:32:00;12.70;99.90
52859;DHT22;38721;53.098;6.596;2022-10-16T03:34:26;12.60;99.90
52859;DHT22;38721;53.098;6.596;2022-10-16T03:36:52;12.60;99.90
52859;DHT22;38721;53.098;6.596;2022-10-16T03:39:19;12.50;99.90
52859;DHT22;38721;53.098;6.596;2022-10-16T03:41:45;12.60;99.90
52859;DHT22;38721;53.098;6.596;2022-10-16T03:44:12;12.60;99.90
52859;DHT22;38721;53.098;6.596;2022-10-16T03:46:37;12.60;99.90
52859;DHT22;38721;53.098;6.596;2022-10-16T03:49:03;12.60;99.90
52859;DHT22;38721;53.098;6.596;2022-10-16T03:51:29;12.50;99.90
52859;DHT22;38721;53.098;6.596;2022-10-16T03:53:54;12.50;99.90
52859;DHT22;38721;53.098;6.596;2022-10-16T03:56:23;12.50;99.90
52859;DHT22;38721;53.098;6.596;2022-10-16T03:58:48;12.50;99.90
52859;DHT22;38721;53.098;6.596;2022-10-16T04:01:14;12.40;99.90
52859;DHT22;38721;53.098;6.596;2022-10-16T04:03:40;12.30;99.90
52859;DHT22;38721;53.098;6.596;2022-10-16T04:06:05;12.40;99.90
52859;DHT22;38721;53.098;6.596;2022-10-16T04:08:31;12.30;99.90
52859;DHT22;38721;53.098;6.596;2022-10-16T04:11:03;12.40;99.90
52859;DHT22;38721;53.098;6.596;2022-10-16T04:13:29;12.40;99.90
52859;DHT22;38721;53.098;6.596;2022-10-16T04:15:54;12.50;99.90
52859;DHT22;38721;53.098;6.596;2022-10-16T04:18:20;12.30;99.90
52859;DHT22;38721;53.098;6.596;2022-10-16T04:20:46;12.50;99.90
52859;DHT22;38721;53.098;6.596;2022-10-16T04:23:11;12.50;99.90
52859;DHT22;38721;53.098;6.596;2022-10-16T04:25:37;12.30;99.90
52859;DHT22;38721;53.098;6.596;2022-10-16T04:28:03;12.30;99.90
52859;DHT22;38721;53.098;6.596;2022-10-16T04:30:31;12.40;99.90
52859;DHT22;38721;53.098;6.596;2022-10-16T04:32:58;12.50;99.90
52859;DHT22;38721;53.098;6.596;2022-10-16T04:35:24;12.40;99.90
52859;DHT22;38721;53.098;6.596;2022-10-16T04:37:50;12.40;99.90
52859;DHT22;38721;53.098;6.596;2022-10-16T04:40:16;12.30;99.90
52859;DHT22;38721;53.098;6.596;2022-10-16T04:42:41;12.40;99.90
52859;DHT22;38721;53.098;6.596;2022-10-16T04:45:07;12.50;99.90
52859;DHT22;38721;53.098;6.596;2022-10-16T04:47:33;12.40;99.90
52859;DHT22;38721;53.098;6.596;2022-10-16T04:49:59;12.50;99.90
52859;DHT22;38721;53.098;6.596;2022-10-16T04:52:26;12.50;99.90
52859;DHT22;38721;53.098;6.596;2022-10-16T04:54:52;12.60;99.90
52859;DHT22;38721;53.098;6.596;2022-10-16T04:57:19;12.70;99.90
52859;DHT22;38721;53.098;6.596;2022-10-16T04:59:44;12.70;99.90
52859;DHT22;38721;53.098;6.596;2022-10-16T05:02:10;12.80;99.90
52859;DHT22;38721;53.098;6.596;2022-10-16T05:04:36;12.90;99.90
52859;DHT22;38721;53.098;6.596;2022-10-16T05:07:02;12.70;99.90
52859;DHT22;38721;53.098;6.596;2022-10-16T05:09:27;12.70;99.90
52859;DHT22;38721;53.098;6.596;2022-10-16T05:11:53;12.80;99.90
52859;DHT22;38721;53.098;6.596;2022-10-16T05:14:18;12.80;99.90
52859;DHT22;38721;53.098;6.596;2022-10-16T05:16:44;12.80;99.90
52859;DHT22;38721;53.098;6.596;2022-10-16T05:19:10;12.90;99.90
52859;DHT22;38721;53.098;6.596;2022-10-16T05:21:35;12.90;99.90
52859;DHT22;38721;53.098;6.596;2022-10-16T05:24:01;12.90;99.90
52859;DHT22;38721;53.098;6.596;2022-10-16T05:26:27;12.80;99.90
52859;DHT22;38721;53.098;6.596;2022-10-16T05:28:55;12.90;99.90
52859;DHT22;38721;53.098;6.596;2022-10-16T05:31:23;12.80;99.90
52859;DHT22;38721;53.098;6.596;2022-10-16T05:33:49;12.80;99.90
52859;DHT22;38721;53.098;6.596;2022-10-16T05:36:14;12.90;99.90
52859;DHT22;38721;53.098;6.596;2022-10-16T05:38:40;13.00;99.90
52859;DHT22;38721;53.098;6.596;2022-10-16T05:41:06;12.90;99.90
52859;DHT22;38721;53.098;6.596;2022-10-16T05:43:35;12.90;99.90
52859;DHT22;38721;53.098;6.596;2022-10-16T05:46:04;13.00;99.90
52859;DHT22;38721;53.098;6.596;2022-10-16T05:48:30;12.80;99.90
52859;DHT22;38721;53.098;6.596;2022-10-16T05:53:23;12.90;99.90
52859;DHT22;38721;53.098;6.596;2022-10-16T05:55:57;12.80;99.90
52859;DHT22;38721;53.098;6.596;2022-10-16T05:58:24;12.90;99.90
52859;DHT22;38721;53.098;6.596;2022-10-16T06:01:00;12.80;99.90
52859;DHT22;38721;53.098;6.596;2022-10-16T06:03:26;12.80;99.90
52859;DHT22;38721;53.098;6.596;2022-10-16T06:05:52;12.90;99.90
52859;DHT22;38721;53.098;6.596;2022-10-16T06:08:20;12.80;99.90
52859;DHT22;38721;53.098;6.596;2022-10-16T06:10:46;12.90;99.90
52859;DHT22;38721;53.098;6.596;2022-10-16T06:13:15;12.90;99.90
52859;DHT22;38721;53.098;6.596;2022-10-16T06:15:42;13.00;99.90
52859;DHT22;38721;53.098;6.596;2022-10-16T06:18:09;12.90;99.90
52859;DHT22;38721;53.098;6.596;2022-10-16T06:20:35;12.90;99.90
52859;DHT22;38721;53.098;6.596;2022-10-16T06:23:01;12.90;99.90
52859;DHT22;38721;53.098;6.596;2022-10-16T06:25:27;12.80;99.90
52859;DHT22;38721;53.098;6.596;2022-10-16T06:27:52;13.00;99.90
52859;DHT22;38721;53.098;6.596;2022-10-16T06:30:18;13.00;99.90
52859;DHT22;38721;53.098;6.596;2022-10-16T06:32:44;12.90;99.90
52859;DHT22;38721;53.098;6.596;2022-10-16T06:35:12;13.10;99.90
52859;DHT22;38721;53.098;6.596;2022-10-16T06:37:38;13.10;99.90
52859;DHT22;38721;53.098;6.596;2022-10-16T06:40:04;13.20;99.90
52859;DHT22;38721;53.098;6.596;2022-10-16T06:42:32;13.10;99.90
52859;DHT22;38721;53.098;6.596;2022-10-16T06:44:58;13.10;99.90
52859;DHT22;38721;53.098;6.596;2022-10-16T06:47:23;13.30;99.90
52859;DHT22;38721;53.098;6.596;2022-10-16T06:49:49;13.40;99.90
52859;DHT22;38721;53.098;6.596;2022-10-16T06:52:15;13.40;99.90
52859;DHT22;38721;53.098;6.596;2022-10-16T06:54:40;13.30;99.90
52859;DHT22;38721;53.098;6.596;2022-10-16T06:57:06;13.40;99.90
52859;DHT22;38721;53.098;6.596;2022-10-16T06:59:32;13.50;99.90
52859;DHT22;38721;53.098;6.596;2022-10-16T07:01:57;13.40;99.90
52859;DHT22;38721;53.098;6.596;2022-10-16T07:04:23;13.40;99.90
52859;DHT22;38721;53.098;6.596;2022-10-16T07:06:49;13.50;99.90
52859;DHT22;38721;53.098;6.596;2022-10-16T07:09:14;13.40;99.90
52859;DHT22;38721;53.098;6.596;2022-10-16T07:11:40;13.40;99.90
52859;DHT22;38721;53.098;6.596;2022-10-16T07:14:16;13.50;99.90
52859;DHT22;38721;53.098;6.596;2022-10-16T07:16:42;13.60;99.90
52859;DHT22;38721;53.098;6.596;2022-10-16T07:19:08;13.50;99.90
52859;DHT22;38721;53.098;6.596;2022-10-16T07:21:34;13.70;99.90
52859;DHT22;38721;53.098;6.596;2022-10-16T07:24:06;13.80;99.90
52859;DHT22;38721;53.098;6.596;2022-10-16T07:26:34;13.70;99.90
52859;DHT22;38721;53.098;6.596;2022-10-16T07:29:00;13.80;99.90
52859;DHT22;38721;53.098;6.596;2022-10-16T07:31:26;13.80;99.90
52859;DHT22;38721;53.098;6.596;2022-10-16T07:33:53;13.70;99.90
52859;DHT22;38721;53.098;6.596;2022-10-16T07:36:20;13.70;99.90
52859;DHT22;38721;53.098;6.596;2022-10-16T07:38:54;13.80;99.90
52859;DHT22;38721;53.098;6.596;2022-10-16T07:41:32;13.60;99.90
52859;DHT22;38721;53.098;6.596;2022-10-16T07:44:02;13.70;99.90
52859;DHT22;38721;53.098;6.596;2022-10-16T07:46:29;13.80;99.90
52859;DHT22;38721;53.098;6.596;2022-10-16T07:48:55;14.00;99.90
52859;DHT22;38721;53.098;6.596;2022-10-16T07:51:23;14.10;99.90
52859;DHT22;38721;53.098;6.596;2022-10-16T07:53:49;14.00;99.90
52859;DHT22;38721;53.098;6.596;2022-10-16T07:56:15;14.00;99.90
52859;DHT22;38721;53.098;6.596;2022-10-16T07:58:42;14.20;99.90
52859;DHT22;38721;53.098;6.596;2022-10-16T08:01:10;14.00;99.90
52859;DHT22;38721;53.098;6.596;2022-10-16T08:03:36;14.20;99.90
52859;DHT22;38721;53.098;6.596;2022-10-16T08:06:03;14.30;99.90
52859;DHT22;38721;53.098;6.596;2022-10-16T08:08:29;14.30;99.90
52859;DHT22;38721;53.098;6.596;2022-10-16T08:10:55;14.50;99.90
52859;DHT22;38721;53.098;6.596;2022-10-16T08:13:21;14.50;99.90
52859;DHT22;38721;53.098;6.596;2022-10-16T08:15:47;14.30;99.90
52859;DHT22;38721;53.098;6.596;2022-10-16T08:18:16;14.30;99.90
52859;DHT22;38721;53.098;6.596;2022-10-16T08:20:42;14.50;99.90
52859;DHT22;38721;53.098;6.596;2022-10-16T08:23:10;14.50;99.90
52859;DHT22;38721;53.098;6.596;2022-10-16T08:25:37;14.40;99.90
52859;DHT22;38721;53.098;6.596;2022-10-16T08:28:08;14.40;99.90
52859;DHT22;38721;53.098;6.596;2022-10-16T08:30:34;14.20;99.90
52859;DHT22;38721;53.098;6.596;2022-10-16T08:33:00;14.30;99.90
52859;DHT22;38721;53.098;6.596;2022-10-16T08:35:26;14.50;99.90
52859;DHT22;38721;53.098;6.596;2022-10-16T08:37:52;14.60;99.90
52859;DHT22;38721;53.098;6.596;2022-10-16T08:40:24;14.50;99.90
52859;DHT22;38721;53.098;6.596;2022-10-16T08:51:14;14.70;99.90
52859;DHT22;38721;53.098;6.596;2022-10-16T08:53:46;14.80;99.90
52859;DHT22;38721;53.098;6.596;2022-10-16T08:56:14;14.60;99.90
52859;DHT22;38721;53.098;6.596;2022-10-16T08:58:40;14.80;99.90
52859;DHT22;38721;53.098;6.596;2022-10-16T09:01:12;14.80;99.90
52859;DHT22;38721;53.098;6.596;2022-10-16T09:10:06;15.00;99.90
52859;DHT22;38721;53.098;6.596;2022-10-16T09:18:41;15.40;99.90
52859;DHT22;38721;53.098;6.596;2022-10-16T09:21:12;15.50;99.90
52859;DHT22;38721;53.098;6.596;2022-10-16T09:23:38;15.50;99.90
52859;DHT22;38721;53.098;6.596;2022-10-16T09:26:05;15.50;99.90
52859;DHT22;38721;53.098;6.596;2022-10-16T09:28:35;15.60;99.90
52859;DHT22;38721;53.098;6.596;2022-10-16T09:31:03;15.60;99.90
52859;DHT22;38721;53.098;6.596;2022-10-16T09:33:34;15.70;99.90
52859;DHT22;38721;53.098;6.596;2022-10-16T09:36:03;15.70;99.90
52859;DHT22;38721;53.098;6.596;2022-10-16T09:38:33;15.60;99.90
52859;DHT22;38721;53.098;6.596;2022-10-16T09:41:01;15.60;99.90
52859;DHT22;38721;53.098;6.596;2022-10-16T09:43:46;15.70;99.90
52859;DHT22;38721;53.098;6.596;2022-10-16T09:46:33;15.90;99.90
52859;DHT22;38721;53.098;6.596;2022-10-16T09:49:01;16.10;99.90
52859;DHT22;38721;53.098;6.596;2022-10-16T09:51:32;16.20;99.90
52859;DHT22;38721;53.098;6.596;2022-10-16T09:56:34;16.30;99.90
52859;DHT22;38721;53.098;6.596;2022-10-16T09:59:12;16.10;99.90
52859;DHT22;38721;53.098;6.596;2022-10-16T10:01:45;16.10;99.90
52859;DHT22;38721;53.098;6.596;2022-10-16T10:04:12;16.00;99.90
52859;DHT22;38721;53.098;6.596;2022-10-16T10:06:43;16.00;99.90
52859;DHT22;38721;53.098;6.596;2022-10-16T10:09:26;16.40;99.90
52859;DHT22;38721;53.098;6.596;2022-10-16T10:11:59;16.60;99.90
52859;DHT22;38721;53.098;6.596;2022-10-16T10:14:31;16.70;99.90
52859;DHT22;38721;53.098;6.596;2022-10-16T10:19:36;16.70;99.90
52859;DHT22;38721;53.098;6.596;2022-10-16T10:22:21;16.60;99.90
52859;DHT22;38721;53.098;6.596;2022-10-16T10:36:00;16.50;99.90
52859;DHT22;38721;53.098;6.596;2022-10-16T10:38:49;16.70;99.90
52859;DHT22;38721;53.098;6.596;2022-10-16T10:41:56;16.50;99.90
52859;DHT22;38721;53.098;6.596;2022-10-16T10:47:37;16.90;99.90
52859;DHT22;38721;53.098;6.596;2022-10-16T10:50:20;16.90;99.90
52859;DHT22;38721;53.098;6.596;2022-10-16T10:55:50;17.30;99.90
52859;DHT22;38721;53.098;6.596;2022-10-16T10:58:24;17.10;99.90
52859;DHT22;38721;53.098;6.596;2022-10-16T11:01:35;17.00;99.90
52859;DHT22;38721;53.098;6.596;2022-10-16T11:06:52;16.90;99.90
52859;DHT22;38721;53.098;6.596;2022-10-16T11:17:40;17.50;73.50
52859;DHT22;38721;53.098;6.596;2022-10-16T11:20:32;17.50;99.90
52859;DHT22;38721;53.098;6.596;2022-10-16T11:23:23;17.60;99.90
52859;DHT22;38721;53.098;6.596;2022-10-16T11:25:51;17.30;99.90
52859;DHT22;38721;53.098;6.596;2022-10-16T11:28:34;17.00;99.90
52859;DHT22;38721;53.098;6.596;2022-10-16T11:31:10;16.50;99.90
52859;DHT22;38721;53.098;6.596;2022-10-16T11:36:21;16.30;99.90
52859;DHT22;38721;53.098;6.596;2022-10-16T11:41:32;16.40;99.90
52859;DHT22;38721;53.098;6.596;2022-10-16T11:49:47;17.10;1.00
52859;DHT22;38721;53.098;6.596;2022-10-16T11:52:40;17.10;99.90
52859;DHT22;38721;53.098;6.596;2022-10-16T12:07:06;17.90;1.00
52859;DHT22;38721;53.098;6.596;2022-10-16T12:09:32;17.70;99.90
52859;DHT22;38721;53.098;6.596;2022-10-16T12:12:03;17.10;99.90
52859;DHT22;38721;53.098;6.596;2022-10-16T12:16:55;17.00;99.90
52859;DHT22;38721;53.098;6.596;2022-10-16T12:19:23;17.00;1.00
52859;DHT22;38721;53.098;6.596;2022-10-16T12:21:51;16.80;99.90
52859;DHT22;38721;53.098;6.596;2022-10-16T12:24:35;16.70;1.00
52859;DHT22;38721;53.098;6.596;2022-10-16T12:27:04;16.70;1.00
52859;DHT22;38721;53.098;6.596;2022-10-16T12:29:37;16.80;43.00
52859;DHT22;38721;53.098;6.596;2022-10-16T12:32:32;16.70;99.90
52859;DHT22;38721;53.098;6.596;2022-10-16T12:35:02;16.60;1.00
52859;DHT22;38721;53.098;6.596;2022-10-16T12:37:36;17.00;1.00
52859;DHT22;38721;53.098;6.596;2022-10-16T12:40:15;17.00;99.90
52859;DHT22;38721;53.098;6.596;2022-10-16T12:42:42;17.40;1.00
52859;DHT22;38721;53.098;6.596;2022-10-16T12:47:53;18.00;99.90
52859;DHT22;38721;53.098;6.596;2022-10-16T12:50:45;18.20;81.70
52859;DHT22;38721;53.098;6.596;2022-10-16T12:53:20;18.10;99.90
52859;DHT22;38721;53.098;6.596;2022-10-16T12:55:57;18.40;99.90
52859;DHT22;38721;53.098;6.596;2022-10-16T13:04:35;18.90;99.90
52859;DHT22;38721;53.098;6.596;2022-10-16T13:07:48;19.30;59.30
52859;DHT22;38721;53.098;6.596;2022-10-16T13:18:19;19.10;99.90
52859;DHT22;38721;53.098;6.596;2022-10-16T13:23:50;18.90;99.90
52859;DHT22;38721;53.098;6.596;2022-10-16T13:28:59;19.20;1.00
52859;DHT22;38721;53.098;6.596;2022-10-16T13:31:26;19.00;99.90
52859;DHT22;38721;53.098;6.596;2022-10-16T13:33:55;19.10;99.90
52859;DHT22;38721;53.098;6.596;2022-10-16T13:39:13;19.10;99.90
52859;DHT22;38721;53.098;6.596;2022-10-16T13:41:40;19.00;1.00
52859;DHT22;38721;53.098;6.596;2022-10-16T13:44:14;18.90;1.00
52859;DHT22;38721;53.098;6.596;2022-10-16T13:46:41;19.70;14.00
52859;DHT22;38721;53.098;6.596;2022-10-16T13:49:15;20.50;1.00
52859;DHT22;38721;53.098;6.596;2022-10-16T13:51:41;20.90;99.90
52859;DHT22;38721;53.098;6.596;2022-10-16T13:54:19;21.70;99.90
52859;DHT22;38721;53.098;6.596;2022-10-16T13:56:44;21.80;99.90
52859;DHT22;38721;53.098;6.596;2022-10-16T13:59:36;21.40;39.20
52859;DHT22;38721;53.098;6.596;2022-10-16T14:02:17;20.90;1.00
52859;DHT22;38721;53.098;6.596;2022-10-16T14:04:49;21.70;51.90
52859;DHT22;38721;53.098;6.596;2022-10-16T14:07:23;21.80;1.00
52859;DHT22;38721;53.098;6.596;2022-10-16T14:09:50;21.30;99.90
52859;DHT22;38721;53.098;6.596;2022-10-16T14:12:16;21.70;99.90
52859;DHT22;38721;53.098;6.596;2022-10-16T14:14:44;22.40;99.90
52859;DHT22;38721;53.098;6.596;2022-10-16T14:17:31;22.60;99.90
52859;DHT22;38721;53.098;6.596;2022-10-16T14:19:59;22.50;99.90
52859;DHT22;38721;53.098;6.596;2022-10-16T14:22:45;22.40;99.90
52859;DHT22;38721;53.098;6.596;2022-10-16T14:25:23;21.70;99.90
52859;DHT22;38721;53.098;6.596;2022-10-16T14:28:13;21.50;99.90
52859;DHT22;38721;53.098;6.596;2022-10-16T14:30:59;21.30;99.90
52859;DHT22;38721;53.098;6.596;2022-10-16T14:36:04;19.80;99.90
52859;DHT22;38721;53.098;6.596;2022-10-16T14:38:31;19.40;99.90
52859;DHT22;38721;53.098;6.596;2022-10-16T14:40:59;18.90;99.90
52859;DHT22;38721;53.098;6.596;2022-10-16T14:43:49;19.10;99.90
52859;DHT22;38721;53.098;6.596;2022-10-16T14:46:21;18.80;1.00
52859;DHT22;38721;53.098;6.596;2022-10-16T14:49:16;18.50;99.90
52859;DHT22;38721;53.098;6.596;2022-10-16T14:51:41;18.10;99.90
52859;DHT22;38721;53.098;6.596;2022-10-16T14:54:09;18.00;99.90
52859;DHT22;38721;53.098;6.596;2022-10-16T14:57:04;17.70;99.90
52859;DHT22;38721;53.098;6.596;2022-10-16T14:59:40;17.60;99.90
52859;DHT22;38721;53.098;6.596;2022-10-16T15:02:28;17.40;99.90
52859;DHT22;38721;53.098;6.596;2022-10-16T15:04:55;17.20;99.90
52859;DHT22;38721;53.098;6.596;2022-10-16T15:07:21;17.30;99.90
52859;DHT22;38721;53.098;6.596;2022-10-16T15:09:47;17.30;1.00
52859;DHT22;38721;53.098;6.596;2022-10-16T15:12:13;17.20;1.00
52859;DHT22;38721;53.098;6.596;2022-10-16T15:14:39;17.10;99.90
52859;DHT22;38721;53.098;6.596;2022-10-16T15:17:04;16.90;99.90
52859;DHT22;38721;53.098;6.596;2022-10-16T15:19:30;16.90;1.00
52859;DHT22;38721;53.098;6.596;2022-10-16T15:21:56;16.90;99.90
52859;DHT22;38721;53.098;6.596;2022-10-16T15:24:21;16.80;99.90
52859;DHT22;38721;53.098;6.596;2022-10-16T15:26:47;16.80;99.90
52859;DHT22;38721;53.098;6.596;2022-10-16T15:29:14;16.80;1.00
52859;DHT22;38721;53.098;6.596;2022-10-16T15:31:40;16.80;1.00
52859;DHT22;38721;53.098;6.596;2022-10-16T15:34:09;16.60;10.80
52859;DHT22;38721;53.098;6.596;2022-10-16T15:36:36;16.60;99.90
52859;DHT22;38721;53.098;6.596;2022-10-16T15:39:17;16.50;99.90
52859;DHT22;38721;53.098;6.596;2022-10-16T15:41:45;16.40;99.90
52859;DHT22;38721;53.098;6.596;2022-10-16T15:44:13;16.20;99.90
52859;DHT22;38721;53.098;6.596;2022-10-16T15:46:39;16.10;1.00
52859;DHT22;38721;53.098;6.596;2022-10-16T15:49:04;16.00;1.00
52859;DHT22;38721;53.098;6.596;2022-10-16T15:51:30;16.00;99.90
52859;DHT22;38721;53.098;6.596;2022-10-16T15:53:58;15.80;99.90
52859;DHT22;38721;53.098;6.596;2022-10-16T15:56:27;15.70;99.90
52859;DHT22;38721;53.098;6.596;2022-10-16T15:58:54;15.60;1.00
52859;DHT22;38721;53.098;6.596;2022-10-16T16:01:20;15.50;1.00
52859;DHT22;38721;53.098;6.596;2022-10-16T16:03:46;15.40;86.80
52859;DHT22;38721;53.098;6.596;2022-10-16T16:06:16;15.30;99.90
52859;DHT22;38721;53.098;6.596;2022-10-16T16:08:41;15.10;99.90
52859;DHT22;38721;53.098;6.596;2022-10-16T16:11:10;15.00;99.90
52859;DHT22;38721;53.098;6.596;2022-10-16T16:13:36;14.90;99.90
52859;DHT22;38721;53.098;6.596;2022-10-16T16:16:14;14.80;99.90
52859;DHT22;38721;53.098;6.596;2022-10-16T16:18:40;14.70;99.90
52859;DHT22;38721;53.098;6.596;2022-10-16T16:21:07;14.60;99.90
52859;DHT22;38721;53.098;6.596;2022-10-16T16:23:32;14.50;99.90
52859;DHT22;38721;53.098;6.596;2022-10-16T16:26:07;14.40;99.90
52859;DHT22;38721;53.098;6.596;2022-10-16T16:28:35;14.30;99.90
52859;DHT22;38721;53.098;6.596;2022-10-16T16:31:03;14.10;99.90
52859;DHT22;38721;53.098;6.596;2022-10-16T16:33:29;14.00;99.90
52859;DHT22;38721;53.098;6.596;2022-10-16T16:36:02;13.90;99.90
52859;DHT22;38721;53.098;6.596;2022-10-16T16:38:28;13.80;99.90
52859;DHT22;38721;53.098;6.596;2022-10-16T16:40:54;13.70;99.90
52859;DHT22;38721;53.098;6.596;2022-10-16T16:43:23;13.60;99.90
52859;DHT22;38721;53.098;6.596;2022-10-16T16:45:49;13.50;99.90
52859;DHT22;38721;53.098;6.596;2022-10-16T16:48:14;13.30;99.90
52859;DHT22;38721;53.098;6.596;2022-10-16T16:50:40;13.30;99.90
52859;DHT22;38721;53.098;6.596;2022-10-16T16:53:05;13.30;99.90
52859;DHT22;38721;53.098;6.596;2022-10-16T16:55:33;13.20;99.90
52859;DHT22;38721;53.098;6.596;2022-10-16T16:57:59;13.00;99.90
52859;DHT22;38721;53.098;6.596;2022-10-16T17:00:25;13.00;99.90
52859;DHT22;38721;53.098;6.596;2022-10-16T17:02:51;12.80;99.90
52859;DHT22;38721;53.098;6.596;2022-10-16T17:05:17;12.70;99.90
52859;DHT22;38721;53.098;6.596;2022-10-16T17:07:43;12.70;99.90
52859;DHT22;38721;53.098;6.596;2022-10-16T17:10:10;12.60;99.90
52859;DHT22;38721;53.098;6.596;2022-10-16T17:12:36;12.50;99.90
52859;DHT22;38721;53.098;6.596;2022-10-16T17:15:04;12.50;99.90
52859;DHT22;38721;53.098;6.596;2022-10-16T17:17:33;12.40;99.90
52859;DHT22;38721;53.098;6.596;2022-10-16T17:19:58;12.40;99.90
52859;DHT22;38721;53.098;6.596;2022-10-16T17:22:24;12.40;99.90
52859;DHT22;38721;53.098;6.596;2022-10-16T17:24:50;12.40;99.90
52859;DHT22;38721;53.098;6.596;2022-10-16T17:27:20;12.30;99.90
52859;DHT22;38721;53.098;6.596;2022-10-16T17:29:50;12.30;99.90
52859;DHT22;38721;53.098;6.596;2022-10-16T17:32:16;12.30;99.90
52859;DHT22;38721;53.098;6.596;2022-10-16T17:34:42;12.20;99.90
52859;DHT22;38721;53.098;6.596;2022-10-16T17:37:07;12.20;99.90
52859;DHT22;38721;53.098;6.596;2022-10-16T17:39:33;12.10;99.90
52859;DHT22;38721;53.098;6.596;2022-10-16T17:41:59;12.10;99.90
52859;DHT22;38721;53.098;6.596;2022-10-16T17:44:25;12.10;99.90
52859;DHT22;38721;53.098;6.596;2022-10-16T17:46:52;12.10;99.90
52859;DHT22;38721;53.098;6.596;2022-10-16T17:49:19;12.20;99.90
52859;DHT22;38721;53.098;6.596;2022-10-16T17:51:48;12.10;99.90